sensor_id;sensor_type;location;lat;lon;timestamp;P1;durP1;ratioP1;P2;durP2;ratioP2
13566;SDS011;6855;48.112;11.298;2023-02-23T00:01:08;23.07;;;12.70;;
13566;SDS011;6855;48.112;11.298;2023-02-23T00:03:35;24.30;;;12.37;;
13566;SDS011;6855;48.112;11.298;2023-02-23T00:06:04;24.87;;;12.43;;
13566;SDS011;6855;48.112;11.298;2023-02-23T00:08:32;20.07;;;11.70;;
13566;SDS011;6855;48.112;11.298;2023-02-23T00:11:00;20.40;;;11.17;;
13566;SDS011;6855;48.112;11.298;2023-02-23T00:13:28;20.60;;;12.03;;
13566;SDS011;6855;48.112;11.298;2023-02-23T00:15:56;21.97;;;11.13;;
13566;SDS011;6855;48.112;11.298;2023-02-23T00:18:23;21.90;;;11.77;;
13566;SDS011;6855;48.112;11.298;2023-02-23T00:20:54;22.50;;;11.80;;
13566;SDS011;6855;48.112;11.298;2023-02-23T00:23:22;17.53;;;10.90;;
13566;SDS011;6855;48.112;11.298;2023-02-23T00:25:51;19.40;;;10.93;;
13566;SDS011;6855;48.112;11.298;2023-02-23T00:28:18;19.27;;;10.67;;
13566;SDS011;6855;48.112;11.298;2023-02-23T00:30:47;28.20;;;11.07;;
13566;SDS011;6855;48.112;11.298;2023-02-23T00:33:14;21.20;;;11.47;;
13566;SDS011;6855;48.112;11.298;2023-02-23T00:35:42;18.90;;;9.87;;
13566;SDS011;6855;48.112;11.298;2023-02-23T00:38:09;19.43;;;11.17;;
13566;SDS011;6855;48.112;11.298;2023-02-23T00:40:38;15.73;;;9.40;;
13566;SDS011;6855;48.112;11.298;2023-02-23T00:43:06;22.77;;;10.00;;
13566;SDS011;6855;48.112;11.298;2023-02-23T00:45:33;18.00;;;10.20;;
13566;SDS011;6855;48.112;11.298;2023-02-23T00:48:02;18.50;;;10.27;;
13566;SDS011;6855;48.112;11.298;2023-02-23T00:50:35;15.80;;;10.30;;
13566;SDS011;6855;48.112;11.298;2023-02-23T00:53:05;15.37;;;9.73;;
13566;SDS011;6855;48.112;11.298;2023-02-23T00:55:32;21.97;;;11.70;;
13566;SDS011;6855;48.112;11.298;2023-02-23T00:57:59;22.00;;;12.10;;
13566;SDS011;6855;48.112;11.298;2023-02-23T01:00:28;15.33;;;9.70;;
13566;SDS011;6855;48.112;11.298;2023-02-23T01:02:56;18.97;;;10.50;;
13566;SDS011;6855;48.112;11.298;2023-02-23T01:05:24;15.90;;;10.10;;
13566;SDS011;6855;48.112;11.298;2023-02-23T01:07:51;17.30;;;10.13;;
13566;SDS011;6855;48.112;11.298;2023-02-23T01:10:19;16.50;;;10.60;;
13566;SDS011;6855;48.112;11.298;2023-02-23T01:12:47;18.50;;;10.80;;
13566;SDS011;6855;48.112;11.298;2023-02-23T01:15:15;26.50;;;11.73;;
13566;SDS011;6855;48.112;11.298;2023-02-23T01:17:43;27.70;;;11.60;;
13566;SDS011;6855;48.112;11.298;2023-02-23T01:20:11;24.20;;;11.37;;
13566;SDS011;6855;48.112;11.298;2023-02-23T01:22:43;18.80;;;10.90;;
13566;SDS011;6855;48.112;11.298;2023-02-23T01:25:10;18.13;;;10.17;;
13566;SDS011;6855;48.112;11.298;2023-02-23T01:27:37;25.90;;;11.30;;
13566;SDS011;6855;48.112;11.298;2023-02-23T01:30:06;19.50;;;10.87;;
13566;SDS011;6855;48.112;11.298;2023-02-23T01:32:34;20.77;;;12.30;;
13566;SDS011;6855;48.112;11.298;2023-02-23T01:35:02;17.33;;;10.50;;
13566;SDS011;6855;48.112;11.298;2023-02-23T01:37:29;19.33;;;10.73;;
13566;SDS011;6855;48.112;11.298;2023-02-23T01:40:00;18.70;;;10.60;;
13566;SDS011;6855;48.112;11.298;2023-02-23T01:42:35;21.07;;;11.03;;
13566;SDS011;6855;48.112;11.298;2023-02-23T01:47:49;24.47;;;12.90;;
13566;SDS011;6855;48.112;11.298;2023-02-23T01:50:16;20.73;;;12.53;;
13566;SDS011;6855;48.112;11.298;2023-02-23T01:52:44;22.03;;;11.07;;
13566;SDS011;6855;48.112;11.298;2023-02-23T01:55:14;20.20;;;11.63;;
13566;SDS011;6855;48.112;11.298;2023-02-23T01:57:47;16.50;;;10.50;;
13566;SDS011;6855;48.112;11.298;2023-02-23T02:00:17;19.03;;;11.40;;
13566;SDS011;6855;48.112;11.298;2023-02-23T02:02:49;20.17;;;10.83;;
13566;SDS011;6855;48.112;11.298;2023-02-23T02:05:18;21.03;;;11.50;;
13566;SDS011;6855;48.112;11.298;2023-02-23T02:07:46;17.83;;;11.90;;
13566;SDS011;6855;48.112;11.298;2023-02-23T02:10:16;23.33;;;12.23;;
13566;SDS011;6855;48.112;11.298;2023-02-23T02:12:58;18.90;;;10.97;;
13566;SDS011;6855;48.112;11.298;2023-02-23T02:15:30;23.27;;;11.83;;
13566;SDS011;6855;48.112;11.298;2023-02-23T02:18:01;21.80;;;11.97;;
13566;SDS011;6855;48.112;11.298;2023-02-23T02:20:48;22.10;;;11.73;;
13566;SDS011;6855;48.112;11.298;2023-02-23T02:26:06;23.37;;;13.13;;
13566;SDS011;6855;48.112;11.298;2023-02-23T02:28:53;19.30;;;11.60;;
13566;SDS011;6855;48.112;11.298;2023-02-23T02:31:35;23.67;;;12.70;;
13566;SDS011;6855;48.112;11.298;2023-02-23T02:34:10;22.30;;;12.23;;
13566;SDS011;6855;48.112;11.298;2023-02-23T02:39:30;26.03;;;13.23;;
13566;SDS011;6855;48.112;11.298;2023-02-23T02:42:03;24.20;;;13.50;;
13566;SDS011;6855;48.112;11.298;2023-02-23T02:44:35;26.00;;;13.10;;
13566;SDS011;6855;48.112;11.298;2023-02-23T02:47:08;21.80;;;11.90;;
13566;SDS011;6855;48.112;11.298;2023-02-23T02:49:39;20.60;;;12.47;;
13566;SDS011;6855;48.112;11.298;2023-02-23T02:52:11;22.23;;;12.60;;
13566;SDS011;6855;48.112;11.298;2023-02-23T02:54:45;23.17;;;11.53;;
13566;SDS011;6855;48.112;11.298;2023-02-23T02:57:17;25.10;;;12.30;;
13566;SDS011;6855;48.112;11.298;2023-02-23T02:59:46;20.73;;;12.33;;
13566;SDS011;6855;48.112;11.298;2023-02-23T03:02:32;20.67;;;11.60;;
13566;SDS011;6855;48.112;11.298;2023-02-23T03:05:17;21.50;;;11.20;;
13566;SDS011;6855;48.112;11.298;2023-02-23T03:08:06;22.53;;;12.10;;
13566;SDS011;6855;48.112;11.298;2023-02-23T03:10:55;23.97;;;12.07;;
13566;SDS011;6855;48.112;11.298;2023-02-23T03:13:46;20.37;;;12.20;;
13566;SDS011;6855;48.112;11.298;2023-02-23T03:16:34;21.77;;;11.63;;
13566;SDS011;6855;48.112;11.298;2023-02-23T03:19:21;23.93;;;13.07;;
13566;SDS011;6855;48.112;11.298;2023-02-23T03:22:11;19.20;;;11.57;;
13566;SDS011;6855;48.112;11.298;2023-02-23T03:24:59;21.87;;;12.10;;
13566;SDS011;6855;48.112;11.298;2023-02-23T03:27:47;28.33;;;11.83;;
13566;SDS011;6855;48.112;11.298;2023-02-23T03:30:36;23.90;;;13.10;;
13566;SDS011;6855;48.112;11.298;2023-02-23T03:33:27;23.33;;;11.80;;
13566;SDS011;6855;48.112;11.298;2023-02-23T03:36:14;26.53;;;12.33;;
13566;SDS011;6855;48.112;11.298;2023-02-23T03:39:03;18.63;;;11.90;;
13566;SDS011;6855;48.112;11.298;2023-02-23T03:41:49;17.10;;;10.90;;
13566;SDS011;6855;48.112;11.298;2023-02-23T03:44:36;20.13;;;12.03;;
13566;SDS011;6855;48.112;11.298;2023-02-23T03:47:24;22.90;;;12.27;;
13566;SDS011;6855;48.112;11.298;2023-02-23T03:50:12;18.00;;;11.40;;
13566;SDS011;6855;48.112;11.298;2023-02-23T03:52:59;17.93;;;11.13;;
13566;SDS011;6855;48.112;11.298;2023-02-23T03:55:44;23.37;;;12.87;;
13566;SDS011;6855;48.112;11.298;2023-02-23T03:58:32;22.67;;;11.80;;
13566;SDS011;6855;48.112;11.298;2023-02-23T04:01:21;19.20;;;11.53;;
13566;SDS011;6855;48.112;11.298;2023-02-23T04:04:08;24.50;;;12.40;;
13566;SDS011;6855;48.112;11.298;2023-02-23T04:06:53;24.43;;;11.87;;
13566;SDS011;6855;48.112;11.298;2023-02-23T04:09:40;22.20;;;12.50;;
13566;SDS011;6855;48.112;11.298;2023-02-23T04:12:25;24.73;;;12.63;;
13566;SDS011;6855;48.112;11.298;2023-02-23T04:15:14;29.20;;;12.73;;
13566;SDS011;6855;48.112;11.298;2023-02-23T04:17:44;19.43;;;11.80;;
13566;SDS011;6855;48.112;11.298;2023-02-23T04:20:12;21.37;;;12.10;;
13566;SDS011;6855;48.112;11.298;2023-02-23T04:22:40;19.47;;;11.83;;
13566;SDS011;6855;48.112;11.298;2023-02-23T04:25:07;24.03;;;12.97;;
13566;SDS011;6855;48.112;11.298;2023-02-23T04:27:36;21.37;;;12.93;;
13566;SDS011;6855;48.112;11.298;2023-02-23T04:30:03;25.57;;;12.73;;
13566;SDS011;6855;48.112;11.298;2023-02-23T04:32:31;24.63;;;13.77;;
13566;SDS011;6855;48.112;11.298;2023-02-23T04:34:59;21.70;;;11.77;;
13566;SDS011;6855;48.112;11.298;2023-02-23T04:37:26;27.10;;;14.10;;
13566;SDS011;6855;48.112;11.298;2023-02-23T04:39:53;24.07;;;11.37;;
13566;SDS011;6855;48.112;11.298;2023-02-23T04:42:21;23.07;;;13.30;;
13566;SDS011;6855;48.112;11.298;2023-02-23T04:44:48;24.90;;;12.10;;
13566;SDS011;6855;48.112;11.298;2023-02-23T04:47:15;26.50;;;13.70;;
13566;SDS011;6855;48.112;11.298;2023-02-23T04:49:43;21.83;;;12.53;;
13566;SDS011;6855;48.112;11.298;2023-02-23T04:52:11;20.83;;;11.27;;
13566;SDS011;6855;48.112;11.298;2023-02-23T04:54:39;31.20;;;11.70;;
13566;SDS011;6855;48.112;11.298;2023-02-23T04:57:06;23.47;;;13.20;;
13566;SDS011;6855;48.112;11.298;2023-02-23T04:59:34;21.53;;;11.37;;
13566;SDS011;6855;48.112;11.298;2023-02-23T05:02:01;23.10;;;12.37;;
13566;SDS011;6855;48.112;11.298;2023-02-23T05:04:28;22.57;;;12.40;;
13566;SDS011;6855;48.112;11.298;2023-02-23T05:06:56;31.63;;;14.00;;
13566;SDS011;6855;48.112;11.298;2023-02-23T05:09:24;19.80;;;12.20;;
13566;SDS011;6855;48.112;11.298;2023-02-23T05:11:52;24.70;;;12.80;;
13566;SDS011;6855;48.112;11.298;2023-02-23T05:14:19;24.90;;;12.47;;
13566;SDS011;6855;48.112;11.298;2023-02-23T05:16:46;19.40;;;12.40;;
13566;SDS011;6855;48.112;11.298;2023-02-23T05:19:14;24.83;;;13.50;;
13566;SDS011;6855;48.112;11.298;2023-02-23T05:21:41;25.83;;;11.43;;
13566;SDS011;6855;48.112;11.298;2023-02-23T05:24:09;18.67;;;11.30;;
13566;SDS011;6855;48.112;11.298;2023-02-23T05:26:37;28.23;;;13.87;;
13566;SDS011;6855;48.112;11.298;2023-02-23T05:29:05;21.60;;;12.97;;
13566;SDS011;6855;48.112;11.298;2023-02-23T05:31:32;22.93;;;11.47;;
13566;SDS011;6855;48.112;11.298;2023-02-23T05:33:59;18.23;;;11.90;;
13566;SDS011;6855;48.112;11.298;2023-02-23T05:36:26;22.50;;;12.77;;
13566;SDS011;6855;48.112;11.298;2023-02-23T05:38:53;20.10;;;12.40;;
13566;SDS011;6855;48.112;11.298;2023-02-23T05:41:21;20.00;;;11.63;;
13566;SDS011;6855;48.112;11.298;2023-02-23T05:43:50;23.10;;;12.97;;
13566;SDS011;6855;48.112;11.298;2023-02-23T05:46:18;26.17;;;14.10;;
13566;SDS011;6855;48.112;11.298;2023-02-23T05:48:46;23.00;;;12.27;;
13566;SDS011;6855;48.112;11.298;2023-02-23T05:51:14;23.00;;;12.40;;
13566;SDS011;6855;48.112;11.298;2023-02-23T05:53:42;20.87;;;12.93;;
13566;SDS011;6855;48.112;11.298;2023-02-23T05:56:10;20.50;;;12.80;;
13566;SDS011;6855;48.112;11.298;2023-02-23T05:58:38;24.80;;;13.07;;
13566;SDS011;6855;48.112;11.298;2023-02-23T06:01:06;27.87;;;12.40;;
13566;SDS011;6855;48.112;11.298;2023-02-23T06:03:34;22.20;;;13.10;;
13566;SDS011;6855;48.112;11.298;2023-02-23T06:06:01;22.20;;;12.23;;
13566;SDS011;6855;48.112;11.298;2023-02-23T06:08:28;23.75;;;14.45;;
13566;SDS011;6855;48.112;11.298;2023-02-23T06:10:56;22.03;;;13.87;;
13566;SDS011;6855;48.112;11.298;2023-02-23T06:13:23;25.23;;;13.70;;
13566;SDS011;6855;48.112;11.298;2023-02-23T06:15:50;25.80;;;12.90;;
13566;SDS011;6855;48.112;11.298;2023-02-23T06:18:18;20.27;;;12.83;;
13566;SDS011;6855;48.112;11.298;2023-02-23T06:20:46;21.37;;;12.23;;
13566;SDS011;6855;48.112;11.298;2023-02-23T06:23:13;22.30;;;13.17;;
13566;SDS011;6855;48.112;11.298;2023-02-23T06:25:41;23.30;;;12.73;;
13566;SDS011;6855;48.112;11.298;2023-02-23T06:28:08;22.83;;;13.67;;
13566;SDS011;6855;48.112;11.298;2023-02-23T06:30:35;30.23;;;13.37;;
13566;SDS011;6855;48.112;11.298;2023-02-23T06:33:02;22.63;;;11.60;;
13566;SDS011;6855;48.112;11.298;2023-02-23T06:35:31;25.67;;;13.90;;
13566;SDS011;6855;48.112;11.298;2023-02-23T06:37:59;21.03;;;12.07;;
13566;SDS011;6855;48.112;11.298;2023-02-23T06:40:26;27.17;;;13.60;;
13566;SDS011;6855;48.112;11.298;2023-02-23T06:42:54;20.47;;;12.07;;
13566;SDS011;6855;48.112;11.298;2023-02-23T06:45:22;23.77;;;13.40;;
13566;SDS011;6855;48.112;11.298;2023-02-23T06:47:49;28.40;;;13.00;;
13566;SDS011;6855;48.112;11.298;2023-02-23T06:50:17;24.37;;;12.87;;
13566;SDS011;6855;48.112;11.298;2023-02-23T06:52:46;30.40;;;14.13;;
13566;SDS011;6855;48.112;11.298;2023-02-23T06:55:14;23.37;;;12.40;;
13566;SDS011;6855;48.112;11.298;2023-02-23T06:57:41;22.03;;;12.17;;
13566;SDS011;6855;48.112;11.298;2023-02-23T07:00:09;21.73;;;12.43;;
13566;SDS011;6855;48.112;11.298;2023-02-23T07:02:39;30.17;;;12.90;;
13566;SDS011;6855;48.112;11.298;2023-02-23T07:05:06;24.17;;;14.53;;
13566;SDS011;6855;48.112;11.298;2023-02-23T07:07:33;19.83;;;11.90;;
13566;SDS011;6855;48.112;11.298;2023-02-23T07:10:02;22.83;;;11.97;;
13566;SDS011;6855;48.112;11.298;2023-02-23T07:12:29;24.77;;;11.70;;
13566;SDS011;6855;48.112;11.298;2023-02-23T07:14:57;23.70;;;12.47;;
13566;SDS011;6855;48.112;11.298;2023-02-23T07:17:24;22.00;;;13.30;;
13566;SDS011;6855;48.112;11.298;2023-02-23T07:19:51;29.10;;;15.20;;
13566;SDS011;6855;48.112;11.298;2023-02-23T07:22:18;22.10;;;12.73;;
13566;SDS011;6855;48.112;11.298;2023-02-23T07:24:46;22.00;;;13.37;;
13566;SDS011;6855;48.112;11.298;2023-02-23T07:27:14;21.93;;;11.60;;
13566;SDS011;6855;48.112;11.298;2023-02-23T07:29:42;22.73;;;12.67;;
13566;SDS011;6855;48.112;11.298;2023-02-23T07:32:09;24.87;;;13.40;;
13566;SDS011;6855;48.112;11.298;2023-02-23T07:34:36;25.13;;;13.07;;
13566;SDS011;6855;48.112;11.298;2023-02-23T07:37:03;22.77;;;12.83;;
13566;SDS011;6855;48.112;11.298;2023-02-23T07:39:30;22.17;;;13.07;;
13566;SDS011;6855;48.112;11.298;2023-02-23T07:41:58;20.73;;;11.80;;
13566;SDS011;6855;48.112;11.298;2023-02-23T07:44:26;25.87;;;13.17;;
13566;SDS011;6855;48.112;11.298;2023-02-23T07:46:53;25.80;;;12.87;;
13566;SDS011;6855;48.112;11.298;2023-02-23T07:49:21;22.07;;;12.27;;
13566;SDS011;6855;48.112;11.298;2023-02-23T07:51:49;23.77;;;11.90;;
13566;SDS011;6855;48.112;11.298;2023-02-23T07:54:16;23.90;;;11.97;;
13566;SDS011;6855;48.112;11.298;2023-02-23T07:56:43;22.57;;;13.50;;
13566;SDS011;6855;48.112;11.298;2023-02-23T07:59:10;20.70;;;11.90;;
13566;SDS011;6855;48.112;11.298;2023-02-23T08:01:39;23.13;;;12.13;;
13566;SDS011;6855;48.112;11.298;2023-02-23T08:04:06;25.97;;;14.23;;
13566;SDS011;6855;48.112;11.298;2023-02-23T08:06:34;23.10;;;12.17;;
13566;SDS011;6855;48.112;11.298;2023-02-23T08:09:01;26.60;;;11.97;;
13566;SDS011;6855;48.112;11.298;2023-02-23T08:11:29;20.87;;;11.80;;
13566;SDS011;6855;48.112;11.298;2023-02-23T08:13:56;19.47;;;12.03;;
13566;SDS011;6855;48.112;11.298;2023-02-23T08:16:24;23.67;;;12.03;;
13566;SDS011;6855;48.112;11.298;2023-02-23T08:18:53;22.63;;;13.00;;
13566;SDS011;6855;48.112;11.298;2023-02-23T08:21:20;35.50;;;13.07;;
13566;SDS011;6855;48.112;11.298;2023-02-23T08:23:47;21.87;;;12.33;;
13566;SDS011;6855;48.112;11.298;2023-02-23T08:26:14;28.27;;;12.80;;
13566;SDS011;6855;48.112;11.298;2023-02-23T08:28:41;24.47;;;13.63;;
13566;SDS011;6855;48.112;11.298;2023-02-23T08:31:10;23.20;;;12.70;;
13566;SDS011;6855;48.112;11.298;2023-02-23T08:33:38;23.80;;;13.07;;
13566;SDS011;6855;48.112;11.298;2023-02-23T08:36:07;24.53;;;12.80;;
13566;SDS011;6855;48.112;11.298;2023-02-23T08:38:34;25.43;;;13.47;;
13566;SDS011;6855;48.112;11.298;2023-02-23T08:41:02;25.83;;;14.00;;
13566;SDS011;6855;48.112;11.298;2023-02-23T08:43:29;23.30;;;13.50;;
13566;SDS011;6855;48.112;11.298;2023-02-23T08:45:56;24.10;;;12.60;;
13566;SDS011;6855;48.112;11.298;2023-02-23T08:48:23;19.63;;;10.90;;
13566;SDS011;6855;48.112;11.298;2023-02-23T08:50:54;17.77;;;11.27;;
13566;SDS011;6855;48.112;11.298;2023-02-23T08:53:23;16.93;;;10.67;;
13566;SDS011;6855;48.112;11.298;2023-02-23T08:55:53;22.03;;;10.70;;
13566;SDS011;6855;48.112;11.298;2023-02-23T08:58:21;17.10;;;11.10;;
13566;SDS011;6855;48.112;11.298;2023-02-23T09:00:48;17.00;;;11.00;;
13566;SDS011;6855;48.112;11.298;2023-02-23T09:03:15;12.40;;;8.80;;
13566;SDS011;6855;48.112;11.298;2023-02-23T09:05:42;15.00;;;9.30;;
13566;SDS011;6855;48.112;11.298;2023-02-23T09:08:10;17.37;;;8.73;;
13566;SDS011;6855;48.112;11.298;2023-02-23T09:10:39;16.20;;;9.93;;
13566;SDS011;6855;48.112;11.298;2023-02-23T09:13:08;17.03;;;9.47;;
13566;SDS011;6855;48.112;11.298;2023-02-23T09:15:35;18.73;;;9.93;;
13566;SDS011;6855;48.112;11.298;2023-02-23T09:18:03;18.83;;;10.60;;
13566;SDS011;6855;48.112;11.298;2023-02-23T09:20:31;19.73;;;9.80;;
13566;SDS011;6855;48.112;11.298;2023-02-23T09:22:58;15.47;;;9.47;;
13566;SDS011;6855;48.112;11.298;2023-02-23T09:25:25;14.57;;;9.63;;
13566;SDS011;6855;48.112;11.298;2023-02-23T09:27:54;17.80;;;9.60;;
13566;SDS011;6855;48.112;11.298;2023-02-23T09:30:23;14.90;;;8.97;;
13566;SDS011;6855;48.112;11.298;2023-02-23T09:32:51;15.27;;;9.57;;
13566;SDS011;6855;48.112;11.298;2023-02-23T09:35:19;21.07;;;8.80;;
13566;SDS011;6855;48.112;11.298;2023-02-23T09:37:47;15.00;;;9.37;;
13566;SDS011;6855;48.112;11.298;2023-02-23T09:40:15;13.40;;;8.87;;
13566;SDS011;6855;48.112;11.298;2023-02-23T09:42:45;13.53;;;8.13;;
13566;SDS011;6855;48.112;11.298;2023-02-23T09:45:21;13.97;;;8.87;;
13566;SDS011;6855;48.112;11.298;2023-02-23T09:47:54;13.57;;;8.60;;
13566;SDS011;6855;48.112;11.298;2023-02-23T09:50:24;29.03;;;9.70;;
13566;SDS011;6855;48.112;11.298;2023-02-23T09:52:53;15.70;;;8.57;;
13566;SDS011;6855;48.112;11.298;2023-02-23T09:55:21;17.67;;;9.40;;
13566;SDS011;6855;48.112;11.298;2023-02-23T09:57:49;16.50;;;8.73;;
13566;SDS011;6855;48.112;11.298;2023-02-23T10:00:17;12.20;;;7.57;;
13566;SDS011;6855;48.112;11.298;2023-02-23T10:05:35;16.73;;;9.37;;
13566;SDS011;6855;48.112;11.298;2023-02-23T10:08:05;13.53;;;8.10;;
13566;SDS011;6855;48.112;11.298;2023-02-23T10:10:35;17.90;;;7.60;;
13566;SDS011;6855;48.112;11.298;2023-02-23T10:13:06;15.00;;;9.20;;
13566;SDS011;6855;48.112;11.298;2023-02-23T10:15:36;15.43;;;8.20;;
13566;SDS011;6855;48.112;11.298;2023-02-23T10:18:09;15.73;;;8.80;;
13566;SDS011;6855;48.112;11.298;2023-02-23T10:20:42;14.23;;;8.50;;
13566;SDS011;6855;48.112;11.298;2023-02-23T10:23:12;16.93;;;8.63;;
13566;SDS011;6855;48.112;11.298;2023-02-23T10:25:42;14.73;;;8.93;;
13566;SDS011;6855;48.112;11.298;2023-02-23T10:28:12;12.70;;;8.20;;
13566;SDS011;6855;48.112;11.298;2023-02-23T10:30:40;16.27;;;8.80;;
13566;SDS011;6855;48.112;11.298;2023-02-23T10:33:20;19.03;;;8.00;;
13566;SDS011;6855;48.112;11.298;2023-02-23T10:35:49;10.43;;;7.50;;
13566;SDS011;6855;48.112;11.298;2023-02-23T10:38:18;12.23;;;8.00;;
13566;SDS011;6855;48.112;11.298;2023-02-23T10:40:45;10.00;;;6.77;;
13566;SDS011;6855;48.112;11.298;2023-02-23T10:43:15;14.37;;;6.63;;
13566;SDS011;6855;48.112;11.298;2023-02-23T10:45:43;13.37;;;7.07;;
13566;SDS011;6855;48.112;11.298;2023-02-23T10:48:13;11.83;;;6.63;;
13566;SDS011;6855;48.112;11.298;2023-02-23T10:50:42;12.70;;;7.90;;
13566;SDS011;6855;48.112;11.298;2023-02-23T10:53:15;14.43;;;8.10;;
13566;SDS011;6855;48.112;11.298;2023-02-23T10:55:44;14.40;;;7.93;;
13566;SDS011;6855;48.112;11.298;2023-02-23T10:58:13;8.77;;;6.77;;
13566;SDS011;6855;48.112;11.298;2023-02-23T11:00:49;11.10;;;7.43;;
13566;SDS011;6855;48.112;11.298;2023-02-23T11:03:20;13.07;;;8.40;;
13566;SDS011;6855;48.112;11.298;2023-02-23T11:05:49;9.43;;;5.90;;
13566;SDS011;6855;48.112;11.298;2023-02-23T11:08:26;10.07;;;6.53;;
13566;SDS011;6855;48.112;11.298;2023-02-23T11:10:59;9.70;;;6.30;;
13566;SDS011;6855;48.112;11.298;2023-02-23T11:13:26;11.53;;;6.37;;
13566;SDS011;6855;48.112;11.298;2023-02-23T11:16:00;10.00;;;6.13;;
13566;SDS011;6855;48.112;11.298;2023-02-23T11:18:28;10.00;;;5.37;;
13566;SDS011;6855;48.112;11.298;2023-02-23T11:20:56;12.47;;;6.77;;
13566;SDS011;6855;48.112;11.298;2023-02-23T11:23:24;11.50;;;6.33;;
13566;SDS011;6855;48.112;11.298;2023-02-23T11:25:54;7.90;;;5.47;;
13566;SDS011;6855;48.112;11.298;2023-02-23T11:28:25;9.47;;;6.40;;
13566;SDS011;6855;48.112;11.298;2023-02-23T11:30:54;10.13;;;5.33;;
13566;SDS011;6855;48.112;11.298;2023-02-23T11:33:23;10.20;;;5.37;;
13566;SDS011;6855;48.112;11.298;2023-02-23T11:35:56;9.53;;;4.93;;
13566;SDS011;6855;48.112;11.298;2023-02-23T11:38:24;7.17;;;4.63;;
13566;SDS011;6855;48.112;11.298;2023-02-23T11:40:58;8.23;;;5.10;;
13566;SDS011;6855;48.112;11.298;2023-02-23T11:43:25;6.20;;;4.60;;
13566;SDS011;6855;48.112;11.298;2023-02-23T11:45:53;6.80;;;4.67;;
13566;SDS011;6855;48.112;11.298;2023-02-23T11:48:22;6.10;;;4.30;;
13566;SDS011;6855;48.112;11.298;2023-02-23T11:50:52;7.00;;;4.70;;
13566;SDS011;6855;48.112;11.298;2023-02-23T11:53:22;4.50;;;3.80;;
13566;SDS011;6855;48.112;11.298;2023-02-23T11:55:53;6.80;;;3.70;;
13566;SDS011;6855;48.112;11.298;2023-02-23T11:58:24;8.60;;;4.47;;
13566;SDS011;6855;48.112;11.298;2023-02-23T12:00:53;6.73;;;3.63;;
13566;SDS011;6855;48.112;11.298;2023-02-23T12:03:21;5.20;;;3.27;;
13566;SDS011;6855;48.112;11.298;2023-02-23T12:05:50;4.50;;;3.10;;
13566;SDS011;6855;48.112;11.298;2023-02-23T12:08:18;8.97;;;3.20;;
13566;SDS011;6855;48.112;11.298;2023-02-23T12:10:49;7.53;;;4.00;;
13566;SDS011;6855;48.112;11.298;2023-02-23T12:13:21;5.30;;;3.40;;
13566;SDS011;6855;48.112;11.298;2023-02-23T12:15:52;7.20;;;2.93;;
13566;SDS011;6855;48.112;11.298;2023-02-23T12:18:28;3.90;;;2.60;;
13566;SDS011;6855;48.112;11.298;2023-02-23T12:20:59;3.83;;;2.93;;
13566;SDS011;6855;48.112;11.298;2023-02-23T12:23:30;4.10;;;2.60;;
13566;SDS011;6855;48.112;11.298;2023-02-23T12:26:02;3.37;;;2.33;;
13566;SDS011;6855;48.112;11.298;2023-02-23T12:28:31;3.53;;;2.40;;
13566;SDS011;6855;48.112;11.298;2023-02-23T12:31:01;5.50;;;2.20;;
13566;SDS011;6855;48.112;11.298;2023-02-23T12:33:32;3.00;;;2.17;;
13566;SDS011;6855;48.112;11.298;2023-02-23T12:36:01;3.13;;;2.10;;
13566;SDS011;6855;48.112;11.298;2023-02-23T12:38:33;3.50;;;1.47;;
13566;SDS011;6855;48.112;11.298;2023-02-23T12:47:08;1.40;;;1.30;;
13566;SDS011;6855;48.112;11.298;2023-02-23T12:49:47;1.20;;;1.10;;
13566;SDS011;6855;48.112;11.298;2023-02-23T12:52:18;6.23;;;1.47;;
13566;SDS011;6855;48.112;11.298;2023-02-23T12:54:46;3.80;;;1.50;;
13566;SDS011;6855;48.112;11.298;2023-02-23T12:57:17;2.80;;;1.50;;
13566;SDS011;6855;48.112;11.298;2023-02-23T12:59:55;3.83;;;1.57;;
13566;SDS011;6855;48.112;11.298;2023-02-23T13:02:29;2.10;;;1.50;;
13566;SDS011;6855;48.112;11.298;2023-02-23T13:05:02;3.17;;;2.07;;
13566;SDS011;6855;48.112;11.298;2023-02-23T13:07:35;6.93;;;2.07;;
13566;SDS011;6855;48.112;11.298;2023-02-23T13:10:09;1.90;;;1.70;;
13566;SDS011;6855;48.112;11.298;2023-02-23T13:12:43;5.73;;;1.67;;
13566;SDS011;6855;48.112;11.298;2023-02-23T13:15:23;3.83;;;2.00;;
13566;SDS011;6855;48.112;11.298;2023-02-23T13:17:55;3.73;;;1.87;;
13566;SDS011;6855;48.112;11.298;2023-02-23T13:20:25;4.57;;;2.10;;
13566;SDS011;6855;48.112;11.298;2023-02-23T13:22:56;3.30;;;2.73;;
13566;SDS011;6855;48.112;11.298;2023-02-23T13:25:28;5.90;;;1.97;;
13566;SDS011;6855;48.112;11.298;2023-02-23T13:27:58;4.50;;;2.40;;
13566;SDS011;6855;48.112;11.298;2023-02-23T13:30:27;4.27;;;2.10;;
13566;SDS011;6855;48.112;11.298;2023-02-23T13:32:57;5.57;;;2.77;;
13566;SDS011;6855;48.112;11.298;2023-02-23T13:35:26;3.20;;;2.37;;
13566;SDS011;6855;48.112;11.298;2023-02-23T13:37:59;4.40;;;2.70;;
13566;SDS011;6855;48.112;11.298;2023-02-23T13:40:30;4.30;;;2.80;;
13566;SDS011;6855;48.112;11.298;2023-02-23T13:43:01;2.57;;;2.10;;
13566;SDS011;6855;48.112;11.298;2023-02-23T13:45:40;7.00;;;2.90;;
13566;SDS011;6855;48.112;11.298;2023-02-23T13:48:22;6.40;;;2.57;;
13566;SDS011;6855;48.112;11.298;2023-02-23T13:50:51;2.50;;;2.20;;
13566;SDS011;6855;48.112;11.298;2023-02-23T13:53:35;6.50;;;3.10;;
13566;SDS011;6855;48.112;11.298;2023-02-23T13:56:04;3.73;;;2.90;;
13566;SDS011;6855;48.112;11.298;2023-02-23T13:58:32;6.70;;;3.50;;
13566;SDS011;6855;48.112;11.298;2023-02-23T14:01:13;5.47;;;3.90;;
13566;SDS011;6855;48.112;11.298;2023-02-23T14:03:46;6.07;;;3.50;;
13566;SDS011;6855;48.112;11.298;2023-02-23T14:06:17;5.87;;;2.97;;
13566;SDS011;6855;48.112;11.298;2023-02-23T14:08:49;7.43;;;4.53;;
13566;SDS011;6855;48.112;11.298;2023-02-23T14:11:37;5.47;;;2.60;;
13566;SDS011;6855;48.112;11.298;2023-02-23T14:14:08;3.60;;;2.60;;
13566;SDS011;6855;48.112;11.298;2023-02-23T14:16:35;3.90;;;2.70;;
13566;SDS011;6855;48.112;11.298;2023-02-23T14:19:06;4.33;;;2.90;;
13566;SDS011;6855;48.112;11.298;2023-02-23T14:21:40;6.60;;;2.77;;
13566;SDS011;6855;48.112;11.298;2023-02-23T14:24:13;5.70;;;2.90;;
13566;SDS011;6855;48.112;11.298;2023-02-23T14:26:43;3.90;;;2.77;;
13566;SDS011;6855;48.112;11.298;2023-02-23T14:29:21;7.00;;;2.60;;
13566;SDS011;6855;48.112;11.298;2023-02-23T14:31:58;3.40;;;2.40;;
13566;SDS011;6855;48.112;11.298;2023-02-23T14:37:33;3.93;;;2.97;;
13566;SDS011;6855;48.112;11.298;2023-02-23T14:40:05;7.00;;;3.10;;
13566;SDS011;6855;48.112;11.298;2023-02-23T14:42:34;7.90;;;3.17;;
13566;SDS011;6855;48.112;11.298;2023-02-23T14:45:04;6.00;;;2.57;;
13566;SDS011;6855;48.112;11.298;2023-02-23T14:47:39;4.40;;;2.83;;
13566;SDS011;6855;48.112;11.298;2023-02-23T14:50:09;6.20;;;3.00;;
13566;SDS011;6855;48.112;11.298;2023-02-23T14:52:41;11.00;;;3.20;;
13566;SDS011;6855;48.112;11.298;2023-02-23T14:55:15;10.73;;;3.43;;
13566;SDS011;6855;48.112;11.298;2023-02-23T14:57:46;5.80;;;2.53;;
13566;SDS011;6855;48.112;11.298;2023-02-23T15:00:17;3.57;;;2.90;;
13566;SDS011;6855;48.112;11.298;2023-02-23T15:02:54;5.60;;;2.60;;
13566;SDS011;6855;48.112;11.298;2023-02-23T15:05:23;9.50;;;4.03;;
13566;SDS011;6855;48.112;11.298;2023-02-23T15:07:51;6.90;;;3.30;;
13566;SDS011;6855;48.112;11.298;2023-02-23T15:10:21;7.80;;;3.10;;
13566;SDS011;6855;48.112;11.298;2023-02-23T15:12:50;6.03;;;2.80;;